<?xml version="1.0" encoding="UTF-8" standalone="no" ?>
<gpx xmlns="http://www.topografix.com/GPX/1/1" xmlns:xsi="http://www.w3.org/2001/XMLSchema-instance" xsi:schemaLocation="http://www.topografix.com/GPX/1/1 http://www.topografix.com/GPX/1/1/gpx.xsd" version="1.1" creator="VisuGPX - https://www.visugpx.com">
  <metadata>
    <name>Le Rocher des Trois Luisants</name>
    <desc><![CDATA[projet dimanche]]></desc>
  </metadata>
  <wpt lat="43.96085" lon="5.13655">
    <ele>462.9</ele>
    <name><![CDATA[Carrière du Beaucet]]></name>
  </wpt>
  <wpt lat="43.95867" lon="5.13429">
    <ele>485.4</ele>
    <name><![CDATA[Piste à droite]]></name>
  </wpt>
  <wpt lat="43.95781" lon="5.13234">
    <ele>496.6</ele>
    <name><![CDATA[3]]></name>
  </wpt>
  <wpt lat="43.9546" lon="5.14072">
    <ele>595.5</ele>
    <name><![CDATA[4]]></name>
  </wpt>
  <wpt lat="43.95405" lon="5.14263">
    <ele>634.3</ele>
    <name><![CDATA[Clairière]]></name>
  </wpt>
  <wpt lat="43.95304" lon="5.14561">
    <ele>659.8</ele>
    <name><![CDATA[6]]></name>
  </wpt>
  <wpt lat="43.95283" lon="5.14683">
    <ele>661.3</ele>
    <name><![CDATA[Balise Rocher des Trois Luisants]]></name>
  </wpt>
  <wpt lat="43.94963" lon="5.1556">
    <ele>639.9</ele>
    <name><![CDATA[Bifurcation à gauche]]></name>
  </wpt>
  <wpt lat="43.94986" lon="5.15614">
    <ele>635.5</ele>
    <name><![CDATA[GRP Sentier Historique du Mur de la Peste]]></name>
  </wpt>
  <wpt lat="43.95609" lon="5.16613">
    <ele>608</ele>
    <name><![CDATA[Balise Pouraque Ouest]]></name>
  </wpt>
  <wpt lat="43.97335" lon="5.15967">
    <ele>474.4</ele>
    <name><![CDATA[9]]></name>
  </wpt>
  <wpt lat="43.97458" lon="5.15101">
    <ele>417.8</ele>
    <name><![CDATA[10]]></name>
  </wpt>
  <wpt lat="43.97485" lon="5.14929">
    <ele>408.2</ele>
    <name><![CDATA[Bifurcation à gauche]]></name>
  </wpt>
  <wpt lat="43.9743" lon="5.14741">
    <ele>387.6</ele>
    <name><![CDATA[Chemin de Carroufra]]></name>
  </wpt>
  <wpt lat="43.97412" lon="5.14723">
    <ele>381.3</ele>
    <name><![CDATA[12]]></name>
  </wpt>
  <wpt lat="43.97019" lon="5.1457">
    <ele>420.9</ele>
    <name><![CDATA[12]]></name>
  </wpt>
  <wpt lat="43.96943" lon="5.13895">
    <ele>411.3</ele>
    <name><![CDATA[Balise Lou Planestèu]]></name>
  </wpt>
  <wpt lat="43.97619" lon="5.1321">
    <ele>291.8</ele>
    <name><![CDATA[Route de Saint-Gens]]></name>
  </wpt>
  <wpt lat="43.97373" lon="5.14707">
    <ele>369.4</ele>
  </wpt>
  <trk>
    <name><![CDATA[Le Rocher des Trois Luisants]]></name>
    <extensions>
      <line xmlns="http://www.topografix.com/GPX/gpx_style/0/2">
        <color>0000FF</color>
        <width>4</width>
      </line>
    </extensions>
    <trkseg>
      <trkpt lat="43.96784" lon="5.12954">
        <ele>396</ele>
        <time>2021-03-10T10:16:48+01:00</time>
      </trkpt>
      <trkpt lat="43.96763" lon="5.12969">
        <ele>397</ele>
        <time>2021-03-10T10:18:04+01:00</time>
      </trkpt>
      <trkpt lat="43.96753" lon="5.12997">
        <ele>399</ele>
        <time>2021-03-10T10:18:42+01:00</time>
      </trkpt>
      <trkpt lat="43.96746" lon="5.13027">
        <ele>403</ele>
        <time>2021-03-10T10:19:55+01:00</time>
      </trkpt>
      <trkpt lat="43.9673" lon="5.1305">
        <ele>406</ele>
        <time>2021-03-10T10:20:23+01:00</time>
      </trkpt>
      <trkpt lat="43.96714" lon="5.13073">
        <ele>409</ele>
        <time>2021-03-10T10:20:49+01:00</time>
      </trkpt>
      <trkpt lat="43.96702" lon="5.131">
        <ele>412</ele>
        <time>2021-03-10T10:21:16+01:00</time>
      </trkpt>
      <trkpt lat="43.96694" lon="5.13129">
        <ele>415</ele>
        <time>2021-03-10T10:21:45+01:00</time>
      </trkpt>
      <trkpt lat="43.96686" lon="5.13159">
        <ele>419</ele>
        <time>2021-03-10T10:22:14+01:00</time>
      </trkpt>
      <trkpt lat="43.9667" lon="5.13181">
        <ele>423</ele>
        <time>2021-03-10T10:22:47+01:00</time>
      </trkpt>
      <trkpt lat="43.96657" lon="5.13207">
        <ele>428</ele>
        <time>2021-03-10T10:23:12+01:00</time>
      </trkpt>
      <trkpt lat="43.96645" lon="5.13234">
        <ele>431</ele>
        <time>2021-03-10T10:23:41+01:00</time>
      </trkpt>
      <trkpt lat="43.96628" lon="5.13255">
        <ele>433</ele>
        <time>2021-03-10T10:24:04+01:00</time>
      </trkpt>
      <trkpt lat="43.96608" lon="5.13272">
        <ele>435</ele>
        <time>2021-03-10T10:24:26+01:00</time>
      </trkpt>
      <trkpt lat="43.96597" lon="5.133">
        <ele>437</ele>
        <time>2021-03-10T10:25:01+01:00</time>
      </trkpt>
      <trkpt lat="43.96591" lon="5.13331">
        <ele>441</ele>
        <time>2021-03-10T10:25:34+01:00</time>
      </trkpt>
      <trkpt lat="43.96585" lon="5.13361">
        <ele>446</ele>
        <time>2021-03-10T10:26:01+01:00</time>
      </trkpt>
      <trkpt lat="43.96586" lon="5.13393">
        <ele>450</ele>
        <time>2021-03-10T10:26:28+01:00</time>
      </trkpt>
      <trkpt lat="43.96588" lon="5.13426">
        <ele>454</ele>
        <time>2021-03-10T10:26:57+01:00</time>
      </trkpt>
      <trkpt lat="43.96582" lon="5.13456">
        <ele>458</ele>
        <time>2021-03-10T10:27:24+01:00</time>
      </trkpt>
      <trkpt lat="43.96566" lon="5.13478">
        <ele>460</ele>
        <time>2021-03-10T10:27:44+01:00</time>
      </trkpt>
      <trkpt lat="43.96543" lon="5.13482">
        <ele>461</ele>
        <time>2021-03-10T10:28:05+01:00</time>
      </trkpt>
      <trkpt lat="43.96523" lon="5.13496">
        <ele>464</ele>
        <time>2021-03-10T10:28:27+01:00</time>
      </trkpt>
      <trkpt lat="43.96507" lon="5.13519">
        <ele>463</ele>
        <time>2021-03-10T10:28:47+01:00</time>
      </trkpt>
      <trkpt lat="43.96487" lon="5.13534">
        <ele>462</ele>
        <time>2021-03-10T10:29:04+01:00</time>
      </trkpt>
      <trkpt lat="43.96466" lon="5.13547">
        <ele>461</ele>
        <time>2021-03-10T10:29:22+01:00</time>
      </trkpt>
      <trkpt lat="43.96445" lon="5.1356">
        <ele>460</ele>
        <time>2021-03-10T10:29:39+01:00</time>
      </trkpt>
      <trkpt lat="43.96423" lon="5.13566">
        <ele>461</ele>
        <time>2021-03-10T10:30:00+01:00</time>
      </trkpt>
      <trkpt lat="43.96402" lon="5.13579">
        <ele>459</ele>
        <time>2021-03-10T10:36:22+01:00</time>
      </trkpt>
      <trkpt lat="43.96378" lon="5.13586">
        <ele>459</ele>
        <time>2021-03-10T10:36:40+01:00</time>
      </trkpt>
      <trkpt lat="43.96356" lon="5.13595">
        <ele>460</ele>
        <time>2021-03-10T10:36:57+01:00</time>
      </trkpt>
      <trkpt lat="43.96334" lon="5.13605">
        <ele>460</ele>
        <time>2021-03-10T10:37:17+01:00</time>
      </trkpt>
      <trkpt lat="43.96311" lon="5.13611">
        <ele>460</ele>
        <time>2021-03-10T10:37:36+01:00</time>
      </trkpt>
      <trkpt lat="43.96288" lon="5.13616">
        <ele>460</ele>
        <time>2021-03-10T10:37:53+01:00</time>
      </trkpt>
      <trkpt lat="43.96266" lon="5.13625">
        <ele>460</ele>
        <time>2021-03-10T10:38:12+01:00</time>
      </trkpt>
      <trkpt lat="43.96243" lon="5.13626">
        <ele>460</ele>
        <time>2021-03-10T10:38:30+01:00</time>
      </trkpt>
      <trkpt lat="43.9622" lon="5.13632">
        <ele>460</ele>
        <time>2021-03-10T10:38:47+01:00</time>
      </trkpt>
      <trkpt lat="43.96196" lon="5.13635">
        <ele>460</ele>
        <time>2021-03-10T10:39:06+01:00</time>
      </trkpt>
      <trkpt lat="43.96174" lon="5.13643">
        <ele>459</ele>
        <time>2021-03-10T10:39:26+01:00</time>
      </trkpt>
      <trkpt lat="43.9615" lon="5.13644">
        <ele>456</ele>
        <time>2021-03-10T10:39:48+01:00</time>
      </trkpt>
      <trkpt lat="43.96128" lon="5.1365">
        <ele>452</ele>
        <time>2021-03-10T10:40:10+01:00</time>
      </trkpt>
      <trkpt lat="43.96107" lon="5.13662">
        <ele>448</ele>
        <time>2021-03-10T10:40:32+01:00</time>
      </trkpt>
      <trkpt lat="43.96085" lon="5.13655">
        <ele>450</ele>
        <time>2021-03-10T10:41:59+01:00</time>
      </trkpt>
      <trkpt lat="43.96067" lon="5.13635">
        <ele>453</ele>
        <time>2021-03-10T10:42:24+01:00</time>
      </trkpt>
      <trkpt lat="43.96046" lon="5.1362">
        <ele>455</ele>
        <time>2021-03-10T10:42:44+01:00</time>
      </trkpt>
      <trkpt lat="43.96024" lon="5.1361">
        <ele>457</ele>
        <time>2021-03-10T10:43:01+01:00</time>
      </trkpt>
      <trkpt lat="43.96003" lon="5.13597">
        <ele>458</ele>
        <time>2021-03-10T10:43:19+01:00</time>
      </trkpt>
      <trkpt lat="43.95983" lon="5.1358">
        <ele>459</ele>
        <time>2021-03-10T10:43:38+01:00</time>
      </trkpt>
      <trkpt lat="43.95968" lon="5.13558">
        <ele>461</ele>
        <time>2021-03-10T10:44:01+01:00</time>
      </trkpt>
      <trkpt lat="43.95954" lon="5.13532">
        <ele>464</ele>
        <time>2021-03-10T10:44:24+01:00</time>
      </trkpt>
      <trkpt lat="43.95937" lon="5.13508">
        <ele>467</ele>
        <time>2021-03-10T10:44:43+01:00</time>
      </trkpt>
      <trkpt lat="43.95923" lon="5.13484">
        <ele>469</ele>
        <time>2021-03-10T10:45:02+01:00</time>
      </trkpt>
      <trkpt lat="43.95905" lon="5.13464">
        <ele>472</ele>
        <time>2021-03-10T10:45:22+01:00</time>
      </trkpt>
      <trkpt lat="43.95886" lon="5.13447">
        <ele>471</ele>
        <time>2021-03-10T10:45:41+01:00</time>
      </trkpt>
      <trkpt lat="43.95867" lon="5.13429">
        <ele>472</ele>
        <time>2021-03-10T10:46:03+01:00</time>
      </trkpt>
      <trkpt lat="43.95864" lon="5.13397">
        <ele>475</ele>
        <time>2021-03-10T10:46:27+01:00</time>
      </trkpt>
      <trkpt lat="43.95854" lon="5.13369">
        <ele>476</ele>
        <time>2021-03-10T10:46:49+01:00</time>
      </trkpt>
      <trkpt lat="43.95846" lon="5.13339">
        <ele>479</ele>
        <time>2021-03-10T10:47:09+01:00</time>
      </trkpt>
      <trkpt lat="43.95834" lon="5.13311">
        <ele>481</ele>
        <time>2021-03-10T10:47:27+01:00</time>
      </trkpt>
      <trkpt lat="43.95825" lon="5.13282">
        <ele>483</ele>
        <time>2021-03-10T10:47:47+01:00</time>
      </trkpt>
      <trkpt lat="43.95812" lon="5.13256">
        <ele>484</ele>
        <time>2021-03-10T10:48:06+01:00</time>
      </trkpt>
      <trkpt lat="43.95803" lon="5.13227">
        <ele>486</ele>
        <time>2021-03-10T10:48:26+01:00</time>
      </trkpt>
      <trkpt lat="43.95781" lon="5.13234">
        <ele>487</ele>
        <time>2021-03-10T10:48:48+01:00</time>
      </trkpt>
      <trkpt lat="43.95763" lon="5.13255">
        <ele>488</ele>
        <time>2021-03-10T10:49:10+01:00</time>
      </trkpt>
      <trkpt lat="43.95742" lon="5.13268">
        <ele>490</ele>
        <time>2021-03-10T10:49:30+01:00</time>
      </trkpt>
      <trkpt lat="43.9572" lon="5.13266">
        <ele>492</ele>
        <time>2021-03-10T10:49:51+01:00</time>
      </trkpt>
      <trkpt lat="43.957" lon="5.13284">
        <ele>495</ele>
        <time>2021-03-10T10:50:15+01:00</time>
      </trkpt>
      <trkpt lat="43.95681" lon="5.13301">
        <ele>497</ele>
        <time>2021-03-10T10:50:36+01:00</time>
      </trkpt>
      <trkpt lat="43.95665" lon="5.13322">
        <ele>500</ele>
        <time>2021-03-10T10:50:58+01:00</time>
      </trkpt>
      <trkpt lat="43.95646" lon="5.13341">
        <ele>503</ele>
        <time>2021-03-10T10:51:21+01:00</time>
      </trkpt>
      <trkpt lat="43.95628" lon="5.13359">
        <ele>506</ele>
        <time>2021-03-10T10:51:43+01:00</time>
      </trkpt>
      <trkpt lat="43.95612" lon="5.13382">
        <ele>506</ele>
        <time>2021-03-10T10:53:47+01:00</time>
      </trkpt>
      <trkpt lat="43.95603" lon="5.13411">
        <ele>508</ele>
        <time>2021-03-10T10:54:10+01:00</time>
      </trkpt>
      <trkpt lat="43.95592" lon="5.13439">
        <ele>511</ele>
        <time>2021-03-10T10:54:36+01:00</time>
      </trkpt>
      <trkpt lat="43.95581" lon="5.13467">
        <ele>515</ele>
        <time>2021-03-10T10:55:01+01:00</time>
      </trkpt>
      <trkpt lat="43.95569" lon="5.13495">
        <ele>517</ele>
        <time>2021-03-10T10:55:25+01:00</time>
      </trkpt>
      <trkpt lat="43.95561" lon="5.13525">
        <ele>520</ele>
        <time>2021-03-10T10:55:48+01:00</time>
      </trkpt>
      <trkpt lat="43.95551" lon="5.13553">
        <ele>523</ele>
        <time>2021-03-10T10:56:14+01:00</time>
      </trkpt>
      <trkpt lat="43.95539" lon="5.13581">
        <ele>527</ele>
        <time>2021-03-10T10:56:39+01:00</time>
      </trkpt>
      <trkpt lat="43.95522" lon="5.13601">
        <ele>529</ele>
        <time>2021-03-10T10:57:02+01:00</time>
      </trkpt>
      <trkpt lat="43.95518" lon="5.13633">
        <ele>533</ele>
        <time>2021-03-10T10:57:31+01:00</time>
      </trkpt>
      <trkpt lat="43.95511" lon="5.13663">
        <ele>535</ele>
        <time>2021-03-10T10:58:08+01:00</time>
      </trkpt>
      <trkpt lat="43.95507" lon="5.13694">
        <ele>539</ele>
        <time>2021-03-10T10:58:40+01:00</time>
      </trkpt>
      <trkpt lat="43.95498" lon="5.13724">
        <ele>541</ele>
        <time>2021-03-10T10:59:05+01:00</time>
      </trkpt>
      <trkpt lat="43.95492" lon="5.13754">
        <ele>545</ele>
        <time>2021-03-10T10:59:32+01:00</time>
      </trkpt>
      <trkpt lat="43.95488" lon="5.13785">
        <ele>549</ele>
        <time>2021-03-10T11:00:01+01:00</time>
      </trkpt>
      <trkpt lat="43.9548" lon="5.13815">
        <ele>552</ele>
        <time>2021-03-10T11:00:28+01:00</time>
      </trkpt>
      <trkpt lat="43.9549" lon="5.13844">
        <ele>558</ele>
        <time>2021-03-10T11:01:08+01:00</time>
      </trkpt>
      <trkpt lat="43.9551" lon="5.13856">
        <ele>560</ele>
        <time>2021-03-10T11:03:41+01:00</time>
      </trkpt>
      <trkpt lat="43.95514" lon="5.13887">
        <ele>564</ele>
        <time>2021-03-10T11:04:12+01:00</time>
      </trkpt>
      <trkpt lat="43.95512" lon="5.13919">
        <ele>568</ele>
        <time>2021-03-10T11:04:46+01:00</time>
      </trkpt>
      <trkpt lat="43.95497" lon="5.13943">
        <ele>572</ele>
        <time>2021-03-10T11:05:14+01:00</time>
      </trkpt>
      <trkpt lat="43.95478" lon="5.13959">
        <ele>577</ele>
        <time>2021-03-10T11:05:46+01:00</time>
      </trkpt>
      <trkpt lat="43.95473" lon="5.1399">
        <ele>582</ele>
        <time>2021-03-10T11:06:21+01:00</time>
      </trkpt>
      <trkpt lat="43.95469" lon="5.14021">
        <ele>586</ele>
        <time>2021-03-10T11:06:51+01:00</time>
      </trkpt>
      <trkpt lat="43.95477" lon="5.1405">
        <ele>591</ele>
        <time>2021-03-10T11:07:26+01:00</time>
      </trkpt>
      <trkpt lat="43.9546" lon="5.14072">
        <ele>595</ele>
        <time>2021-03-10T11:08:22+01:00</time>
      </trkpt>
      <trkpt lat="43.95452" lon="5.14102">
        <ele>601</ele>
        <time>2021-03-10T11:10:00+01:00</time>
      </trkpt>
      <trkpt lat="43.9544" lon="5.14129">
        <ele>606</ele>
        <time>2021-03-10T11:10:29+01:00</time>
      </trkpt>
      <trkpt lat="43.95425" lon="5.14153">
        <ele>609</ele>
        <time>2021-03-10T11:10:58+01:00</time>
      </trkpt>
      <trkpt lat="43.9541" lon="5.14177">
        <ele>613</ele>
        <time>2021-03-10T11:11:29+01:00</time>
      </trkpt>
      <trkpt lat="43.95398" lon="5.14203">
        <ele>618</ele>
        <time>2021-03-10T11:12:03+01:00</time>
      </trkpt>
      <trkpt lat="43.95381" lon="5.14224">
        <ele>624</ele>
        <time>2021-03-10T11:12:47+01:00</time>
      </trkpt>
      <trkpt lat="43.95404" lon="5.14231">
        <ele>628</ele>
        <time>2021-03-10T11:13:16+01:00</time>
      </trkpt>
      <trkpt lat="43.95405" lon="5.14263">
        <ele>635</ele>
        <time>2021-03-10T11:15:31+01:00</time>
      </trkpt>
      <trkpt lat="43.95387" lon="5.14282">
        <ele>638</ele>
        <time>2021-03-10T11:16:02+01:00</time>
      </trkpt>
      <trkpt lat="43.95368" lon="5.14302">
        <ele>641</ele>
        <time>2021-03-10T11:16:25+01:00</time>
      </trkpt>
      <trkpt lat="43.95354" lon="5.14329">
        <ele>642</ele>
        <time>2021-03-10T11:16:48+01:00</time>
      </trkpt>
      <trkpt lat="43.95342" lon="5.14355">
        <ele>643</ele>
        <time>2021-03-10T11:17:19+01:00</time>
      </trkpt>
      <trkpt lat="43.95328" lon="5.14382">
        <ele>645</ele>
        <time>2021-03-10T11:17:42+01:00</time>
      </trkpt>
      <trkpt lat="43.95311" lon="5.14404">
        <ele>647</ele>
        <time>2021-03-10T11:18:06+01:00</time>
      </trkpt>
      <trkpt lat="43.95296" lon="5.14428">
        <ele>648</ele>
        <time>2021-03-10T11:18:27+01:00</time>
      </trkpt>
      <trkpt lat="43.95278" lon="5.14446">
        <ele>650</ele>
        <time>2021-03-10T11:18:50+01:00</time>
      </trkpt>
      <trkpt lat="43.95278" lon="5.14479">
        <ele>653</ele>
        <time>2021-03-10T11:19:18+01:00</time>
      </trkpt>
      <trkpt lat="43.95287" lon="5.14508">
        <ele>655</ele>
        <time>2021-03-10T11:19:40+01:00</time>
      </trkpt>
      <trkpt lat="43.95305" lon="5.14529">
        <ele>655</ele>
        <time>2021-03-10T11:20:03+01:00</time>
      </trkpt>
      <trkpt lat="43.95304" lon="5.14561">
        <ele>656</ele>
        <time>2021-03-10T11:23:51+01:00</time>
      </trkpt>
      <trkpt lat="43.95307" lon="5.14592">
        <ele>657</ele>
        <time>2021-03-10T11:24:18+01:00</time>
      </trkpt>
      <trkpt lat="43.95297" lon="5.14622">
        <ele>657</ele>
        <time>2021-03-10T11:24:37+01:00</time>
      </trkpt>
      <trkpt lat="43.95289" lon="5.14651">
        <ele>658</ele>
        <time>2021-03-10T11:24:58+01:00</time>
      </trkpt>
      <trkpt lat="43.95283" lon="5.14683">
        <ele>658</ele>
        <time>2021-03-10T11:25:18+01:00</time>
      </trkpt>
      <trkpt lat="43.95275" lon="5.14713">
        <ele>657</ele>
        <time>2021-03-10T11:26:35+01:00</time>
      </trkpt>
      <trkpt lat="43.9527" lon="5.14745">
        <ele>656</ele>
        <time>2021-03-10T11:26:55+01:00</time>
      </trkpt>
      <trkpt lat="43.95262" lon="5.14774">
        <ele>655</ele>
        <time>2021-03-10T11:27:13+01:00</time>
      </trkpt>
      <trkpt lat="43.95257" lon="5.14805">
        <ele>655</ele>
        <time>2021-03-10T11:27:30+01:00</time>
      </trkpt>
      <trkpt lat="43.9525" lon="5.14835">
        <ele>654</ele>
        <time>2021-03-10T11:27:47+01:00</time>
      </trkpt>
      <trkpt lat="43.95239" lon="5.14864">
        <ele>653</ele>
        <time>2021-03-10T11:28:03+01:00</time>
      </trkpt>
      <trkpt lat="43.95229" lon="5.14892">
        <ele>652</ele>
        <time>2021-03-10T11:28:19+01:00</time>
      </trkpt>
      <trkpt lat="43.95223" lon="5.14922">
        <ele>652</ele>
        <time>2021-03-10T11:28:37+01:00</time>
      </trkpt>
      <trkpt lat="43.95217" lon="5.14953">
        <ele>651</ele>
        <time>2021-03-10T11:28:55+01:00</time>
      </trkpt>
      <trkpt lat="43.95198" lon="5.14973">
        <ele>650</ele>
        <time>2021-03-10T11:29:11+01:00</time>
      </trkpt>
      <trkpt lat="43.95181" lon="5.14993">
        <ele>649</ele>
        <time>2021-03-10T11:29:28+01:00</time>
      </trkpt>
      <trkpt lat="43.95166" lon="5.15018">
        <ele>648</ele>
        <time>2021-03-10T11:29:45+01:00</time>
      </trkpt>
      <trkpt lat="43.95153" lon="5.15044">
        <ele>647</ele>
        <time>2021-03-10T11:30:01+01:00</time>
      </trkpt>
      <trkpt lat="43.9514" lon="5.15071">
        <ele>645</ele>
        <time>2021-03-10T11:30:19+01:00</time>
      </trkpt>
      <trkpt lat="43.95127" lon="5.15098">
        <ele>644</ele>
        <time>2021-03-10T11:30:34+01:00</time>
      </trkpt>
      <trkpt lat="43.95112" lon="5.15122">
        <ele>643</ele>
        <time>2021-03-10T11:30:52+01:00</time>
      </trkpt>
      <trkpt lat="43.95098" lon="5.15147">
        <ele>642</ele>
        <time>2021-03-10T11:31:07+01:00</time>
      </trkpt>
      <trkpt lat="43.95085" lon="5.15173">
        <ele>641</ele>
        <time>2021-03-10T11:31:23+01:00</time>
      </trkpt>
      <trkpt lat="43.9507" lon="5.15199">
        <ele>640</ele>
        <time>2021-03-10T11:31:40+01:00</time>
      </trkpt>
      <trkpt lat="43.95064" lon="5.15229">
        <ele>640</ele>
        <time>2021-03-10T11:31:56+01:00</time>
      </trkpt>
      <trkpt lat="43.95057" lon="5.15261">
        <ele>639</ele>
        <time>2021-03-10T11:32:14+01:00</time>
      </trkpt>
      <trkpt lat="43.95052" lon="5.15293">
        <ele>639</ele>
        <time>2021-03-10T11:32:32+01:00</time>
      </trkpt>
      <trkpt lat="43.95047" lon="5.15324">
        <ele>638</ele>
        <time>2021-03-10T11:32:48+01:00</time>
      </trkpt>
      <trkpt lat="43.95048" lon="5.15356">
        <ele>636</ele>
        <time>2021-03-10T11:33:06+01:00</time>
      </trkpt>
      <trkpt lat="43.95044" lon="5.15388">
        <ele>636</ele>
        <time>2021-03-10T11:33:21+01:00</time>
      </trkpt>
      <trkpt lat="43.95035" lon="5.15417">
        <ele>635</ele>
        <time>2021-03-10T11:33:37+01:00</time>
      </trkpt>
      <trkpt lat="43.95028" lon="5.15447">
        <ele>634</ele>
        <time>2021-03-10T11:33:52+01:00</time>
      </trkpt>
      <trkpt lat="43.95018" lon="5.15475">
        <ele>633</ele>
        <time>2021-03-10T11:34:06+01:00</time>
      </trkpt>
      <trkpt lat="43.95001" lon="5.15496">
        <ele>632</ele>
        <time>2021-03-10T11:34:23+01:00</time>
      </trkpt>
      <trkpt lat="43.94978" lon="5.15506">
        <ele>632</ele>
        <time>2021-03-10T11:34:40+01:00</time>
      </trkpt>
      <trkpt lat="43.94961" lon="5.15528">
        <ele>631</ele>
        <time>2021-03-10T11:34:58+01:00</time>
      </trkpt>
      <trkpt lat="43.94963" lon="5.1556">
        <ele>630</ele>
        <time>2021-03-10T11:35:17+01:00</time>
      </trkpt>
      <trkpt lat="43.94979" lon="5.15584">
        <ele>630</ele>
        <time>2021-03-10T11:36:01+01:00</time>
      </trkpt>
      <trkpt lat="43.94986" lon="5.15614">
        <ele>630</ele>
        <time>2021-03-10T11:36:26+01:00</time>
      </trkpt>
      <trkpt lat="43.95001" lon="5.15638">
        <ele>631</ele>
        <time>2021-03-10T11:37:03+01:00</time>
      </trkpt>
      <trkpt lat="43.95023" lon="5.15647">
        <ele>631</ele>
        <time>2021-03-10T11:38:09+01:00</time>
      </trkpt>
      <trkpt lat="43.95044" lon="5.15661">
        <ele>632</ele>
        <time>2021-03-10T11:38:26+01:00</time>
      </trkpt>
      <trkpt lat="43.95066" lon="5.15672">
        <ele>632</ele>
        <time>2021-03-10T11:38:44+01:00</time>
      </trkpt>
      <trkpt lat="43.95088" lon="5.15683">
        <ele>634</ele>
        <time>2021-03-10T11:39:03+01:00</time>
      </trkpt>
      <trkpt lat="43.95111" lon="5.15681">
        <ele>636</ele>
        <time>2021-03-10T11:39:24+01:00</time>
      </trkpt>
      <trkpt lat="43.95134" lon="5.15674">
        <ele>638</ele>
        <time>2021-03-10T11:39:45+01:00</time>
      </trkpt>
      <trkpt lat="43.95156" lon="5.15681">
        <ele>638</ele>
        <time>2021-03-10T11:40:03+01:00</time>
      </trkpt>
      <trkpt lat="43.95179" lon="5.15679">
        <ele>638</ele>
        <time>2021-03-10T11:40:22+01:00</time>
      </trkpt>
      <trkpt lat="43.95202" lon="5.1568">
        <ele>638</ele>
        <time>2021-03-10T11:40:39+01:00</time>
      </trkpt>
      <trkpt lat="43.95225" lon="5.15686">
        <ele>637</ele>
        <time>2021-03-10T11:40:54+01:00</time>
      </trkpt>
      <trkpt lat="43.95241" lon="5.15709">
        <ele>635</ele>
        <time>2021-03-10T11:41:12+01:00</time>
      </trkpt>
      <trkpt lat="43.95264" lon="5.15707">
        <ele>634</ele>
        <time>2021-03-10T11:41:28+01:00</time>
      </trkpt>
      <trkpt lat="43.95287" lon="5.15702">
        <ele>636</ele>
        <time>2021-03-10T11:41:45+01:00</time>
      </trkpt>
      <trkpt lat="43.9531" lon="5.15704">
        <ele>635</ele>
        <time>2021-03-10T11:42:01+01:00</time>
      </trkpt>
      <trkpt lat="43.95334" lon="5.15705">
        <ele>634</ele>
        <time>2021-03-10T11:42:19+01:00</time>
      </trkpt>
      <trkpt lat="43.95357" lon="5.1571">
        <ele>633</ele>
        <time>2021-03-10T11:42:36+01:00</time>
      </trkpt>
      <trkpt lat="43.95379" lon="5.15715">
        <ele>633</ele>
        <time>2021-03-10T11:42:52+01:00</time>
      </trkpt>
      <trkpt lat="43.95403" lon="5.15716">
        <ele>632</ele>
        <time>2021-03-10T11:43:08+01:00</time>
      </trkpt>
      <trkpt lat="43.95426" lon="5.15716">
        <ele>632</ele>
        <time>2021-03-10T11:43:26+01:00</time>
      </trkpt>
      <trkpt lat="43.95448" lon="5.15717">
        <ele>632</ele>
        <time>2021-03-10T11:43:43+01:00</time>
      </trkpt>
      <trkpt lat="43.95471" lon="5.15725">
        <ele>633</ele>
        <time>2021-03-10T11:44:05+01:00</time>
      </trkpt>
      <trkpt lat="43.95489" lon="5.15746">
        <ele>632</ele>
        <time>2021-03-10T11:44:23+01:00</time>
      </trkpt>
      <trkpt lat="43.95498" lon="5.15776">
        <ele>632</ele>
        <time>2021-03-10T11:44:34+01:00</time>
      </trkpt>
      <trkpt lat="43.95498" lon="5.15808">
        <ele>632</ele>
        <time>2021-03-10T11:44:50+01:00</time>
      </trkpt>
      <trkpt lat="43.95495" lon="5.1584">
        <ele>632</ele>
        <time>2021-03-10T11:45:29+01:00</time>
      </trkpt>
      <trkpt lat="43.95485" lon="5.15869">
        <ele>632</ele>
        <time>2021-03-10T11:45:45+01:00</time>
      </trkpt>
      <trkpt lat="43.95475" lon="5.15899">
        <ele>632</ele>
        <time>2021-03-10T11:46:04+01:00</time>
      </trkpt>
      <trkpt lat="43.95465" lon="5.15928">
        <ele>631</ele>
        <time>2021-03-10T11:46:22+01:00</time>
      </trkpt>
      <trkpt lat="43.95459" lon="5.15959">
        <ele>631</ele>
        <time>2021-03-10T11:46:38+01:00</time>
      </trkpt>
      <trkpt lat="43.95459" lon="5.15992">
        <ele>631</ele>
        <time>2021-03-10T11:46:58+01:00</time>
      </trkpt>
      <trkpt lat="43.95462" lon="5.16023">
        <ele>631</ele>
        <time>2021-03-10T11:47:15+01:00</time>
      </trkpt>
      <trkpt lat="43.95477" lon="5.16047">
        <ele>631</ele>
        <time>2021-03-10T11:47:34+01:00</time>
      </trkpt>
      <trkpt lat="43.9549" lon="5.16074">
        <ele>630</ele>
        <time>2021-03-10T11:47:49+01:00</time>
      </trkpt>
      <trkpt lat="43.95503" lon="5.161">
        <ele>629</ele>
        <time>2021-03-10T11:48:07+01:00</time>
      </trkpt>
      <trkpt lat="43.95515" lon="5.16127">
        <ele>630</ele>
        <time>2021-03-10T11:48:24+01:00</time>
      </trkpt>
      <trkpt lat="43.95531" lon="5.16151">
        <ele>630</ele>
        <time>2021-03-10T11:48:43+01:00</time>
      </trkpt>
      <trkpt lat="43.95544" lon="5.16179">
        <ele>632</ele>
        <time>2021-03-10T11:48:59+01:00</time>
      </trkpt>
      <trkpt lat="43.95559" lon="5.16204">
        <ele>632</ele>
        <time>2021-03-10T11:49:17+01:00</time>
      </trkpt>
      <trkpt lat="43.9558" lon="5.16217">
        <ele>632</ele>
        <time>2021-03-10T11:49:33+01:00</time>
      </trkpt>
      <trkpt lat="43.95596" lon="5.16241">
        <ele>630</ele>
        <time>2021-03-10T11:49:52+01:00</time>
      </trkpt>
      <trkpt lat="43.95606" lon="5.16271">
        <ele>626</ele>
        <time>2021-03-10T11:50:09+01:00</time>
      </trkpt>
      <trkpt lat="43.95617" lon="5.163">
        <ele>623</ele>
        <time>2021-03-10T11:50:25+01:00</time>
      </trkpt>
      <trkpt lat="43.95635" lon="5.1632">
        <ele>620</ele>
        <time>2021-03-10T11:50:43+01:00</time>
      </trkpt>
      <trkpt lat="43.95655" lon="5.16337">
        <ele>617</ele>
        <time>2021-03-10T11:51:00+01:00</time>
      </trkpt>
      <trkpt lat="43.95662" lon="5.16368">
        <ele>614</ele>
        <time>2021-03-10T11:51:18+01:00</time>
      </trkpt>
      <trkpt lat="43.95649" lon="5.16395">
        <ele>611</ele>
        <time>2021-03-10T11:51:33+01:00</time>
      </trkpt>
      <trkpt lat="43.95641" lon="5.16426">
        <ele>609</ele>
        <time>2021-03-10T11:51:47+01:00</time>
      </trkpt>
      <trkpt lat="43.95639" lon="5.16458">
        <ele>606</ele>
        <time>2021-03-10T11:52:03+01:00</time>
      </trkpt>
      <trkpt lat="43.95634" lon="5.16489">
        <ele>605</ele>
        <time>2021-03-10T11:52:18+01:00</time>
      </trkpt>
      <trkpt lat="43.95629" lon="5.16521">
        <ele>603</ele>
        <time>2021-03-10T11:52:37+01:00</time>
      </trkpt>
      <trkpt lat="43.95621" lon="5.16551">
        <ele>602</ele>
        <time>2021-03-10T11:52:52+01:00</time>
      </trkpt>
      <trkpt lat="43.95605" lon="5.16575">
        <ele>601</ele>
        <time>2021-03-10T11:53:08+01:00</time>
      </trkpt>
      <trkpt lat="43.95589" lon="5.16598">
        <ele>601</ele>
        <time>2021-03-10T11:53:24+01:00</time>
      </trkpt>
      <trkpt lat="43.95609" lon="5.16613">
        <ele>602</ele>
        <time>2021-03-10T11:54:51+01:00</time>
      </trkpt>
      <trkpt lat="43.95632" lon="5.16609">
        <ele>603</ele>
        <time>2021-03-10T11:55:09+01:00</time>
      </trkpt>
      <trkpt lat="43.95652" lon="5.16594">
        <ele>604</ele>
        <time>2021-03-10T11:55:26+01:00</time>
      </trkpt>
      <trkpt lat="43.95672" lon="5.16578">
        <ele>604</ele>
        <time>2021-03-10T11:55:45+01:00</time>
      </trkpt>
      <trkpt lat="43.95692" lon="5.16564">
        <ele>603</ele>
        <time>2021-03-10T11:56:02+01:00</time>
      </trkpt>
      <trkpt lat="43.9571" lon="5.16545">
        <ele>602</ele>
        <time>2021-03-10T11:56:19+01:00</time>
      </trkpt>
      <trkpt lat="43.95733" lon="5.1654">
        <ele>601</ele>
        <time>2021-03-10T11:56:36+01:00</time>
      </trkpt>
      <trkpt lat="43.95752" lon="5.16519">
        <ele>599</ele>
        <time>2021-03-10T11:56:52+01:00</time>
      </trkpt>
      <trkpt lat="43.95773" lon="5.16504">
        <ele>598</ele>
        <time>2021-03-10T11:57:08+01:00</time>
      </trkpt>
      <trkpt lat="43.95792" lon="5.16487">
        <ele>597</ele>
        <time>2021-03-10T11:57:26+01:00</time>
      </trkpt>
      <trkpt lat="43.95813" lon="5.16473">
        <ele>596</ele>
        <time>2021-03-10T11:57:42+01:00</time>
      </trkpt>
      <trkpt lat="43.95832" lon="5.16452">
        <ele>595</ele>
        <time>2021-03-10T11:57:58+01:00</time>
      </trkpt>
      <trkpt lat="43.95841" lon="5.16423">
        <ele>593</ele>
        <time>2021-03-10T11:58:12+01:00</time>
      </trkpt>
      <trkpt lat="43.95864" lon="5.16415">
        <ele>590</ele>
        <time>2021-03-10T11:58:30+01:00</time>
      </trkpt>
      <trkpt lat="43.95886" lon="5.16402">
        <ele>588</ele>
        <time>2021-03-10T11:58:48+01:00</time>
      </trkpt>
      <trkpt lat="43.95905" lon="5.16384">
        <ele>585</ele>
        <time>2021-03-10T11:59:05+01:00</time>
      </trkpt>
      <trkpt lat="43.95925" lon="5.16367">
        <ele>584</ele>
        <time>2021-03-10T11:59:20+01:00</time>
      </trkpt>
      <trkpt lat="43.95947" lon="5.16357">
        <ele>584</ele>
        <time>2021-03-10T11:59:37+01:00</time>
      </trkpt>
      <trkpt lat="43.9597" lon="5.16354">
        <ele>584</ele>
        <time>2021-03-10T11:59:52+01:00</time>
      </trkpt>
      <trkpt lat="43.95993" lon="5.16345">
        <ele>585</ele>
        <time>2021-03-10T12:00:10+01:00</time>
      </trkpt>
      <trkpt lat="43.96015" lon="5.1634">
        <ele>585</ele>
        <time>2021-03-10T12:00:28+01:00</time>
      </trkpt>
      <trkpt lat="43.96037" lon="5.16332">
        <ele>584</ele>
        <time>2021-03-10T12:00:44+01:00</time>
      </trkpt>
      <trkpt lat="43.96059" lon="5.16325">
        <ele>585</ele>
        <time>2021-03-10T12:01:01+01:00</time>
      </trkpt>
      <trkpt lat="43.96081" lon="5.16331">
        <ele>586</ele>
        <time>2021-03-10T12:01:19+01:00</time>
      </trkpt>
      <trkpt lat="43.96104" lon="5.16336">
        <ele>587</ele>
        <time>2021-03-10T12:01:37+01:00</time>
      </trkpt>
      <trkpt lat="43.96126" lon="5.16326">
        <ele>588</ele>
        <time>2021-03-10T12:01:54+01:00</time>
      </trkpt>
      <trkpt lat="43.9615" lon="5.16323">
        <ele>587</ele>
        <time>2021-03-10T12:02:10+01:00</time>
      </trkpt>
      <trkpt lat="43.96172" lon="5.16325">
        <ele>585</ele>
        <time>2021-03-10T12:02:28+01:00</time>
      </trkpt>
      <trkpt lat="43.96195" lon="5.16329">
        <ele>585</ele>
        <time>2021-03-10T12:02:43+01:00</time>
      </trkpt>
      <trkpt lat="43.96219" lon="5.16327">
        <ele>585</ele>
        <time>2021-03-10T12:03:01+01:00</time>
      </trkpt>
      <trkpt lat="43.96241" lon="5.16321">
        <ele>585</ele>
        <time>2021-03-10T12:03:14+01:00</time>
      </trkpt>
      <trkpt lat="43.96262" lon="5.1631">
        <ele>585</ele>
        <time>2021-03-10T12:03:29+01:00</time>
      </trkpt>
      <trkpt lat="43.96282" lon="5.16296">
        <ele>583</ele>
        <time>2021-03-10T12:03:47+01:00</time>
      </trkpt>
      <trkpt lat="43.96304" lon="5.16286">
        <ele>582</ele>
        <time>2021-03-10T12:04:04+01:00</time>
      </trkpt>
      <trkpt lat="43.96327" lon="5.16283">
        <ele>580</ele>
        <time>2021-03-10T12:04:21+01:00</time>
      </trkpt>
      <trkpt lat="43.9635" lon="5.16291">
        <ele>580</ele>
        <time>2021-03-10T12:04:39+01:00</time>
      </trkpt>
      <trkpt lat="43.96372" lon="5.16295">
        <ele>580</ele>
        <time>2021-03-10T12:04:55+01:00</time>
      </trkpt>
      <trkpt lat="43.96395" lon="5.16297">
        <ele>580</ele>
        <time>2021-03-10T12:05:11+01:00</time>
      </trkpt>
      <trkpt lat="43.96418" lon="5.16302">
        <ele>580</ele>
        <time>2021-03-10T12:05:30+01:00</time>
      </trkpt>
      <trkpt lat="43.96441" lon="5.1631">
        <ele>579</ele>
        <time>2021-03-10T12:05:55+01:00</time>
      </trkpt>
      <trkpt lat="43.96464" lon="5.16311">
        <ele>577</ele>
        <time>2021-03-10T12:06:12+01:00</time>
      </trkpt>
      <trkpt lat="43.96487" lon="5.16316">
        <ele>576</ele>
        <time>2021-03-10T12:06:29+01:00</time>
      </trkpt>
      <trkpt lat="43.96511" lon="5.16318">
        <ele>576</ele>
        <time>2021-03-10T12:06:48+01:00</time>
      </trkpt>
      <trkpt lat="43.96534" lon="5.16319">
        <ele>575</ele>
        <time>2021-03-10T12:07:05+01:00</time>
      </trkpt>
      <trkpt lat="43.96557" lon="5.16319">
        <ele>574</ele>
        <time>2021-03-10T12:07:22+01:00</time>
      </trkpt>
      <trkpt lat="43.96581" lon="5.16317">
        <ele>573</ele>
        <time>2021-03-10T12:07:39+01:00</time>
      </trkpt>
      <trkpt lat="43.96604" lon="5.16314">
        <ele>572</ele>
        <time>2021-03-10T12:07:55+01:00</time>
      </trkpt>
      <trkpt lat="43.96627" lon="5.16309">
        <ele>571</ele>
        <time>2021-03-10T12:08:12+01:00</time>
      </trkpt>
      <trkpt lat="43.9665" lon="5.16305">
        <ele>570</ele>
        <time>2021-03-10T12:08:30+01:00</time>
      </trkpt>
      <trkpt lat="43.96673" lon="5.16297">
        <ele>569</ele>
        <time>2021-03-10T12:08:45+01:00</time>
      </trkpt>
      <trkpt lat="43.96695" lon="5.16284">
        <ele>568</ele>
        <time>2021-03-10T12:09:04+01:00</time>
      </trkpt>
      <trkpt lat="43.96712" lon="5.16262">
        <ele>568</ele>
        <time>2021-03-10T12:09:20+01:00</time>
      </trkpt>
      <trkpt lat="43.9673" lon="5.16243">
        <ele>566</ele>
        <time>2021-03-10T12:09:35+01:00</time>
      </trkpt>
      <trkpt lat="43.96751" lon="5.16231">
        <ele>565</ele>
        <time>2021-03-10T12:09:53+01:00</time>
      </trkpt>
      <trkpt lat="43.96772" lon="5.16216">
        <ele>564</ele>
        <time>2021-03-10T12:10:10+01:00</time>
      </trkpt>
      <trkpt lat="43.96794" lon="5.16208">
        <ele>563</ele>
        <time>2021-03-10T12:10:26+01:00</time>
      </trkpt>
      <trkpt lat="43.96817" lon="5.16209">
        <ele>563</ele>
        <time>2021-03-10T12:10:43+01:00</time>
      </trkpt>
      <trkpt lat="43.9684" lon="5.16213">
        <ele>562</ele>
        <time>2021-03-10T12:10:59+01:00</time>
      </trkpt>
      <trkpt lat="43.96862" lon="5.1622">
        <ele>562</ele>
        <time>2021-03-10T12:11:18+01:00</time>
      </trkpt>
      <trkpt lat="43.96884" lon="5.16224">
        <ele>561</ele>
        <time>2021-03-10T12:11:34+01:00</time>
      </trkpt>
      <trkpt lat="43.96907" lon="5.16232">
        <ele>560</ele>
        <time>2021-03-10T12:11:50+01:00</time>
      </trkpt>
      <trkpt lat="43.9693" lon="5.16237">
        <ele>558</ele>
        <time>2021-03-10T12:12:09+01:00</time>
      </trkpt>
      <trkpt lat="43.96951" lon="5.16251">
        <ele>556</ele>
        <time>2021-03-10T12:12:31+01:00</time>
      </trkpt>
      <trkpt lat="43.96963" lon="5.16278">
        <ele>552</ele>
        <time>2021-03-10T12:12:52+01:00</time>
      </trkpt>
      <trkpt lat="43.96974" lon="5.16305">
        <ele>549</ele>
        <time>2021-03-10T12:13:09+01:00</time>
      </trkpt>
      <trkpt lat="43.96979" lon="5.16336">
        <ele>546</ele>
        <time>2021-03-10T12:13:27+01:00</time>
      </trkpt>
      <trkpt lat="43.96994" lon="5.16361">
        <ele>543</ele>
        <time>2021-03-10T12:13:45+01:00</time>
      </trkpt>
      <trkpt lat="43.97013" lon="5.16381">
        <ele>539</ele>
        <time>2021-03-10T12:14:06+01:00</time>
      </trkpt>
      <trkpt lat="43.97032" lon="5.16398">
        <ele>537</ele>
        <time>2021-03-10T12:14:23+01:00</time>
      </trkpt>
      <trkpt lat="43.97053" lon="5.16412">
        <ele>537</ele>
        <time>2021-03-10T12:14:41+01:00</time>
      </trkpt>
      <trkpt lat="43.97074" lon="5.16423">
        <ele>537</ele>
        <time>2021-03-10T12:14:57+01:00</time>
      </trkpt>
      <trkpt lat="43.97095" lon="5.16411">
        <ele>537</ele>
        <time>2021-03-10T12:15:14+01:00</time>
      </trkpt>
      <trkpt lat="43.97113" lon="5.1639">
        <ele>537</ele>
        <time>2021-03-10T12:15:32+01:00</time>
      </trkpt>
      <trkpt lat="43.97129" lon="5.16367">
        <ele>536</ele>
        <time>2021-03-10T12:15:49+01:00</time>
      </trkpt>
      <trkpt lat="43.97146" lon="5.16345">
        <ele>535</ele>
        <time>2021-03-10T12:16:05+01:00</time>
      </trkpt>
      <trkpt lat="43.9716" lon="5.16319">
        <ele>533</ele>
        <time>2021-03-10T12:17:00+01:00</time>
      </trkpt>
      <trkpt lat="43.97175" lon="5.16294">
        <ele>531</ele>
        <time>2021-03-10T12:17:21+01:00</time>
      </trkpt>
      <trkpt lat="43.97192" lon="5.16273">
        <ele>529</ele>
        <time>2021-03-10T12:17:40+01:00</time>
      </trkpt>
      <trkpt lat="43.9721" lon="5.16252">
        <ele>527</ele>
        <time>2021-03-10T12:17:54+01:00</time>
      </trkpt>
      <trkpt lat="43.97229" lon="5.16233">
        <ele>524</ele>
        <time>2021-03-10T12:18:11+01:00</time>
      </trkpt>
      <trkpt lat="43.97238" lon="5.16203">
        <ele>522</ele>
        <time>2021-03-10T12:18:28+01:00</time>
      </trkpt>
      <trkpt lat="43.97239" lon="5.16171">
        <ele>519</ele>
        <time>2021-03-10T12:18:46+01:00</time>
      </trkpt>
      <trkpt lat="43.97239" lon="5.16139">
        <ele>517</ele>
        <time>2021-03-10T12:19:03+01:00</time>
      </trkpt>
      <trkpt lat="43.97236" lon="5.16107">
        <ele>514</ele>
        <time>2021-03-10T12:19:21+01:00</time>
      </trkpt>
      <trkpt lat="43.97227" lon="5.16077">
        <ele>511</ele>
        <time>2021-03-10T12:19:39+01:00</time>
      </trkpt>
      <trkpt lat="43.97223" lon="5.16045">
        <ele>508</ele>
        <time>2021-03-10T12:19:59+01:00</time>
      </trkpt>
      <trkpt lat="43.97218" lon="5.16014">
        <ele>506</ele>
        <time>2021-03-10T12:20:18+01:00</time>
      </trkpt>
      <trkpt lat="43.97216" lon="5.15983">
        <ele>501</ele>
        <time>2021-03-10T12:20:45+01:00</time>
      </trkpt>
      <trkpt lat="43.97238" lon="5.15973">
        <ele>497</ele>
        <time>2021-03-10T12:21:13+01:00</time>
      </trkpt>
      <trkpt lat="43.9726" lon="5.15967">
        <ele>495</ele>
        <time>2021-03-10T12:21:41+01:00</time>
      </trkpt>
      <trkpt lat="43.97283" lon="5.15961">
        <ele>492</ele>
        <time>2021-03-10T12:21:59+01:00</time>
      </trkpt>
      <trkpt lat="43.97305" lon="5.15954">
        <ele>488</ele>
        <time>2021-03-10T12:22:20+01:00</time>
      </trkpt>
      <trkpt lat="43.97325" lon="5.15969">
        <ele>485</ele>
        <time>2021-03-10T12:22:44+01:00</time>
      </trkpt>
      <trkpt lat="43.97334" lon="5.15998">
        <ele>484</ele>
        <time>2021-03-10T12:23:03+01:00</time>
      </trkpt>
      <trkpt lat="43.97335" lon="5.15967">
        <ele>478</ele>
        <time>2021-03-10T12:25:19+01:00</time>
      </trkpt>
      <trkpt lat="43.9733" lon="5.15935">
        <ele>476</ele>
        <time>2021-03-10T12:25:39+01:00</time>
      </trkpt>
      <trkpt lat="43.97331" lon="5.15902">
        <ele>472</ele>
        <time>2021-03-10T12:25:56+01:00</time>
      </trkpt>
      <trkpt lat="43.97322" lon="5.15873">
        <ele>469</ele>
        <time>2021-03-10T12:26:14+01:00</time>
      </trkpt>
      <trkpt lat="43.9732" lon="5.1584">
        <ele>465</ele>
        <time>2021-03-10T12:26:32+01:00</time>
      </trkpt>
      <trkpt lat="43.97331" lon="5.15811">
        <ele>462</ele>
        <time>2021-03-10T12:26:56+01:00</time>
      </trkpt>
      <trkpt lat="43.97335" lon="5.15779">
        <ele>460</ele>
        <time>2021-03-10T12:27:16+01:00</time>
      </trkpt>
      <trkpt lat="43.97353" lon="5.15759">
        <ele>459</ele>
        <time>2021-03-10T12:27:34+01:00</time>
      </trkpt>
      <trkpt lat="43.97364" lon="5.1573">
        <ele>457</ele>
        <time>2021-03-10T12:27:53+01:00</time>
      </trkpt>
      <trkpt lat="43.9737" lon="5.15699">
        <ele>456</ele>
        <time>2021-03-10T12:28:10+01:00</time>
      </trkpt>
      <trkpt lat="43.97374" lon="5.15668">
        <ele>455</ele>
        <time>2021-03-10T12:28:28+01:00</time>
      </trkpt>
      <trkpt lat="43.97379" lon="5.15636">
        <ele>453</ele>
        <time>2021-03-10T12:28:45+01:00</time>
      </trkpt>
      <trkpt lat="43.97375" lon="5.15603">
        <ele>450</ele>
        <time>2021-03-10T12:29:05+01:00</time>
      </trkpt>
      <trkpt lat="43.97366" lon="5.15573">
        <ele>449</ele>
        <time>2021-03-10T12:29:21+01:00</time>
      </trkpt>
      <trkpt lat="43.97366" lon="5.15542">
        <ele>447</ele>
        <time>2021-03-10T12:29:38+01:00</time>
      </trkpt>
      <trkpt lat="43.97369" lon="5.1551">
        <ele>445</ele>
        <time>2021-03-10T12:29:55+01:00</time>
      </trkpt>
      <trkpt lat="43.97371" lon="5.15478">
        <ele>444</ele>
        <time>2021-03-10T12:30:10+01:00</time>
      </trkpt>
      <trkpt lat="43.97374" lon="5.15447">
        <ele>443</ele>
        <time>2021-03-10T12:30:29+01:00</time>
      </trkpt>
      <trkpt lat="43.97374" lon="5.15415">
        <ele>442</ele>
        <time>2021-03-10T12:30:45+01:00</time>
      </trkpt>
      <trkpt lat="43.9737" lon="5.15383">
        <ele>441</ele>
        <time>2021-03-10T12:31:04+01:00</time>
      </trkpt>
      <trkpt lat="43.97372" lon="5.1535">
        <ele>439</ele>
        <time>2021-03-10T12:31:23+01:00</time>
      </trkpt>
      <trkpt lat="43.97375" lon="5.15319">
        <ele>438</ele>
        <time>2021-03-10T12:31:38+01:00</time>
      </trkpt>
      <trkpt lat="43.97378" lon="5.15287">
        <ele>437</ele>
        <time>2021-03-10T12:31:57+01:00</time>
      </trkpt>
      <trkpt lat="43.9738" lon="5.15255">
        <ele>436</ele>
        <time>2021-03-10T12:32:13+01:00</time>
      </trkpt>
      <trkpt lat="43.97383" lon="5.15223">
        <ele>434</ele>
        <time>2021-03-10T12:32:33+01:00</time>
      </trkpt>
      <trkpt lat="43.97395" lon="5.15196">
        <ele>433</ele>
        <time>2021-03-10T12:32:50+01:00</time>
      </trkpt>
      <trkpt lat="43.97409" lon="5.15171">
        <ele>431</ele>
        <time>2021-03-10T12:33:09+01:00</time>
      </trkpt>
      <trkpt lat="43.97424" lon="5.15145">
        <ele>429</ele>
        <time>2021-03-10T12:33:27+01:00</time>
      </trkpt>
      <trkpt lat="43.97441" lon="5.15125">
        <ele>427</ele>
        <time>2021-03-10T12:33:46+01:00</time>
      </trkpt>
      <trkpt lat="43.97458" lon="5.15101">
        <ele>424</ele>
        <time>2021-03-10T12:35:09+01:00</time>
      </trkpt>
      <trkpt lat="43.97471" lon="5.15075">
        <ele>421</ele>
        <time>2021-03-10T12:35:36+01:00</time>
      </trkpt>
      <trkpt lat="43.97485" lon="5.15049">
        <ele>419</ele>
        <time>2021-03-10T12:35:49+01:00</time>
      </trkpt>
      <trkpt lat="43.97491" lon="5.15017">
        <ele>417</ele>
        <time>2021-03-10T12:36:13+01:00</time>
      </trkpt>
      <trkpt lat="43.97494" lon="5.14985">
        <ele>415</ele>
        <time>2021-03-10T12:36:31+01:00</time>
      </trkpt>
      <trkpt lat="43.97498" lon="5.14954">
        <ele>412</ele>
        <time>2021-03-10T12:36:49+01:00</time>
      </trkpt>
      <trkpt lat="43.97485" lon="5.14929">
        <ele>411</ele>
        <time>2021-03-10T12:37:31+01:00</time>
      </trkpt>
      <trkpt lat="43.97462" lon="5.14921">
        <ele>413</ele>
        <time>2021-03-10T12:37:56+01:00</time>
      </trkpt>
      <trkpt lat="43.97449" lon="5.14895">
        <ele>413</ele>
        <time>2021-03-10T12:38:19+01:00</time>
      </trkpt>
      <trkpt lat="43.97438" lon="5.14866">
        <ele>412</ele>
        <time>2021-03-10T12:38:40+01:00</time>
      </trkpt>
      <trkpt lat="43.97432" lon="5.14835">
        <ele>409</ele>
        <time>2021-03-10T12:38:56+01:00</time>
      </trkpt>
      <trkpt lat="43.97425" lon="5.14804">
        <ele>405</ele>
        <time>2021-03-10T12:39:18+01:00</time>
      </trkpt>
      <trkpt lat="43.97427" lon="5.14772">
        <ele>401</ele>
        <time>2021-03-10T12:39:38+01:00</time>
      </trkpt>
      <trkpt lat="43.9743" lon="5.14741">
        <ele>398</ele>
        <time>2021-03-10T12:40:03+01:00</time>
      </trkpt>
      <trkpt lat="43.97412" lon="5.14723">
        <ele>390</ele>
        <time>2021-03-10T12:42:05+01:00</time>
      </trkpt>
      <trkpt lat="43.9739" lon="5.14733">
        <ele>384</ele>
        <time>2021-03-10T12:42:44+01:00</time>
      </trkpt>
      <trkpt lat="43.9739" lon="5.14765">
        <ele>384</ele>
        <time>2021-03-10T12:43:04+01:00</time>
      </trkpt>
      <trkpt lat="43.97391" lon="5.14796">
        <ele>385</ele>
        <time>2021-03-10T12:43:22+01:00</time>
      </trkpt>
      <trkpt lat="43.97389" lon="5.14828">
        <ele>383</ele>
        <time>2021-03-10T12:43:37+01:00</time>
      </trkpt>
      <trkpt lat="43.97382" lon="5.14858">
        <ele>383</ele>
        <time>2021-03-10T12:44:22+01:00</time>
      </trkpt>
      <trkpt lat="43.97373" lon="5.14888">
        <ele>380</ele>
        <time>2021-03-10T12:44:42+01:00</time>
      </trkpt>
      <trkpt lat="43.97364" lon="5.14918">
        <ele>379</ele>
        <time>2021-03-10T12:44:59+01:00</time>
      </trkpt>
      <trkpt lat="43.97354" lon="5.14946">
        <ele>377</ele>
        <time>2021-03-10T12:45:22+01:00</time>
      </trkpt>
      <trkpt lat="43.9734" lon="5.14971">
        <ele>376</ele>
        <time>2021-03-10T12:45:38+01:00</time>
      </trkpt>
      <trkpt lat="43.97327" lon="5.14999">
        <ele>374</ele>
        <time>2021-03-10T12:45:55+01:00</time>
      </trkpt>
      <trkpt lat="43.97309" lon="5.1502">
        <ele>374</ele>
        <time>2021-03-10T12:46:13+01:00</time>
      </trkpt>
      <trkpt lat="43.9729" lon="5.15037">
        <ele>373</ele>
        <time>2021-03-10T12:46:36+01:00</time>
      </trkpt>
      <trkpt lat="43.97268" lon="5.15025">
        <ele>373</ele>
        <time>2021-03-10T12:46:45+01:00</time>
      </trkpt>
      <trkpt lat="43.97247" lon="5.1501">
        <ele>372</ele>
        <time>2021-03-10T12:47:07+01:00</time>
      </trkpt>
      <trkpt lat="43.97241" lon="5.14977">
        <ele>372</ele>
        <time>2021-03-10T12:47:16+01:00</time>
      </trkpt>
      <trkpt lat="43.97237" lon="5.14946">
        <ele>373</ele>
        <time>2021-03-10T12:47:46+01:00</time>
      </trkpt>
      <trkpt lat="43.97217" lon="5.14963">
        <ele>375</ele>
        <time>2021-03-10T12:48:04+01:00</time>
      </trkpt>
      <trkpt lat="43.97204" lon="5.14989">
        <ele>377</ele>
        <time>2021-03-10T12:48:27+01:00</time>
      </trkpt>
      <trkpt lat="43.97181" lon="5.14987">
        <ele>378</ele>
        <time>2021-03-10T12:48:50+01:00</time>
      </trkpt>
      <trkpt lat="43.97179" lon="5.14955">
        <ele>378</ele>
        <time>2021-03-10T12:49:12+01:00</time>
      </trkpt>
      <trkpt lat="43.97176" lon="5.14924">
        <ele>380</ele>
        <time>2021-03-10T12:49:37+01:00</time>
      </trkpt>
      <trkpt lat="43.9717" lon="5.14893">
        <ele>382</ele>
        <time>2021-03-10T12:49:57+01:00</time>
      </trkpt>
      <trkpt lat="43.97168" lon="5.14862">
        <ele>383</ele>
        <time>2021-03-10T12:50:15+01:00</time>
      </trkpt>
      <trkpt lat="43.97169" lon="5.1483">
        <ele>386</ele>
        <time>2021-03-10T12:50:35+01:00</time>
      </trkpt>
      <trkpt lat="43.97172" lon="5.14799">
        <ele>388</ele>
        <time>2021-03-10T12:50:55+01:00</time>
      </trkpt>
      <trkpt lat="43.97173" lon="5.14768">
        <ele>391</ele>
        <time>2021-03-10T12:51:16+01:00</time>
      </trkpt>
      <trkpt lat="43.9718" lon="5.14738">
        <ele>393</ele>
        <time>2021-03-10T12:51:34+01:00</time>
      </trkpt>
      <trkpt lat="43.97184" lon="5.14707">
        <ele>396</ele>
        <time>2021-03-10T12:51:51+01:00</time>
      </trkpt>
      <trkpt lat="43.97194" lon="5.14678">
        <ele>400</ele>
        <time>2021-03-10T12:52:18+01:00</time>
      </trkpt>
      <trkpt lat="43.97192" lon="5.14647">
        <ele>404</ele>
        <time>2021-03-10T12:52:44+01:00</time>
      </trkpt>
      <trkpt lat="43.9717" lon="5.14652">
        <ele>407</ele>
        <time>2021-03-10T12:53:24+01:00</time>
      </trkpt>
      <trkpt lat="43.97147" lon="5.14655">
        <ele>409</ele>
        <time>2021-03-10T12:53:45+01:00</time>
      </trkpt>
      <trkpt lat="43.97124" lon="5.14653">
        <ele>410</ele>
        <time>2021-03-10T12:54:05+01:00</time>
      </trkpt>
      <trkpt lat="43.97101" lon="5.14652">
        <ele>412</ele>
        <time>2021-03-10T12:54:23+01:00</time>
      </trkpt>
      <trkpt lat="43.97078" lon="5.14652">
        <ele>414</ele>
        <time>2021-03-10T12:54:42+01:00</time>
      </trkpt>
      <trkpt lat="43.97055" lon="5.14644">
        <ele>415</ele>
        <time>2021-03-10T12:55:02+01:00</time>
      </trkpt>
      <trkpt lat="43.9704" lon="5.14622">
        <ele>415</ele>
        <time>2021-03-10T12:55:23+01:00</time>
      </trkpt>
      <trkpt lat="43.97023" lon="5.14601">
        <ele>416</ele>
        <time>2021-03-10T12:55:39+01:00</time>
      </trkpt>
      <trkpt lat="43.97019" lon="5.1457">
        <ele>417</ele>
        <time>2021-03-10T12:56:21+01:00</time>
      </trkpt>
      <trkpt lat="43.97007" lon="5.14543">
        <ele>417</ele>
        <time>2021-03-10T12:56:47+01:00</time>
      </trkpt>
      <trkpt lat="43.96991" lon="5.1452">
        <ele>418</ele>
        <time>2021-03-10T12:57:07+01:00</time>
      </trkpt>
      <trkpt lat="43.9698" lon="5.14491">
        <ele>418</ele>
        <time>2021-03-10T12:57:25+01:00</time>
      </trkpt>
      <trkpt lat="43.96972" lon="5.14461">
        <ele>417</ele>
        <time>2021-03-10T12:57:44+01:00</time>
      </trkpt>
      <trkpt lat="43.96969" lon="5.14429">
        <ele>416</ele>
        <time>2021-03-10T12:58:02+01:00</time>
      </trkpt>
      <trkpt lat="43.9696" lon="5.14399">
        <ele>415</ele>
        <time>2021-03-10T12:58:18+01:00</time>
      </trkpt>
      <trkpt lat="43.96944" lon="5.14377">
        <ele>416</ele>
        <time>2021-03-10T12:58:35+01:00</time>
      </trkpt>
      <trkpt lat="43.96925" lon="5.14357">
        <ele>415</ele>
        <time>2021-03-10T12:58:52+01:00</time>
      </trkpt>
      <trkpt lat="43.9691" lon="5.14331">
        <ele>416</ele>
        <time>2021-03-10T12:59:14+01:00</time>
      </trkpt>
      <trkpt lat="43.96892" lon="5.1431">
        <ele>415</ele>
        <time>2021-03-10T12:59:30+01:00</time>
      </trkpt>
      <trkpt lat="43.96877" lon="5.14285">
        <ele>415</ele>
        <time>2021-03-10T12:59:50+01:00</time>
      </trkpt>
      <trkpt lat="43.96864" lon="5.14259">
        <ele>416</ele>
        <time>2021-03-10T13:00:03+01:00</time>
      </trkpt>
      <trkpt lat="43.96847" lon="5.14238">
        <ele>417</ele>
        <time>2021-03-10T13:00:19+01:00</time>
      </trkpt>
      <trkpt lat="43.9684" lon="5.14207">
        <ele>417</ele>
        <time>2021-03-10T13:00:37+01:00</time>
      </trkpt>
      <trkpt lat="43.96827" lon="5.14181">
        <ele>418</ele>
        <time>2021-03-10T13:00:55+01:00</time>
      </trkpt>
      <trkpt lat="43.96819" lon="5.14152">
        <ele>418</ele>
        <time>2021-03-10T13:01:12+01:00</time>
      </trkpt>
      <trkpt lat="43.96809" lon="5.14124">
        <ele>419</ele>
        <time>2021-03-10T13:01:31+01:00</time>
      </trkpt>
      <trkpt lat="43.96799" lon="5.14096">
        <ele>419</ele>
        <time>2021-03-10T13:01:48+01:00</time>
      </trkpt>
      <trkpt lat="43.96793" lon="5.14065">
        <ele>420</ele>
        <time>2021-03-10T13:02:06+01:00</time>
      </trkpt>
      <trkpt lat="43.96797" lon="5.14034">
        <ele>420</ele>
        <time>2021-03-10T13:02:25+01:00</time>
      </trkpt>
      <trkpt lat="43.96808" lon="5.14006">
        <ele>421</ele>
        <time>2021-03-10T13:02:45+01:00</time>
      </trkpt>
      <trkpt lat="43.96822" lon="5.1398">
        <ele>422</ele>
        <time>2021-03-10T13:03:04+01:00</time>
      </trkpt>
      <trkpt lat="43.9684" lon="5.13961">
        <ele>422</ele>
        <time>2021-03-10T13:03:23+01:00</time>
      </trkpt>
      <trkpt lat="43.9686" lon="5.13946">
        <ele>422</ele>
        <time>2021-03-10T13:03:44+01:00</time>
      </trkpt>
      <trkpt lat="43.96881" lon="5.13936">
        <ele>422</ele>
        <time>2021-03-10T13:04:02+01:00</time>
      </trkpt>
      <trkpt lat="43.96903" lon="5.13928">
        <ele>421</ele>
        <time>2021-03-10T13:04:20+01:00</time>
      </trkpt>
      <trkpt lat="43.96924" lon="5.13914">
        <ele>420</ele>
        <time>2021-03-10T13:04:42+01:00</time>
      </trkpt>
      <trkpt lat="43.96943" lon="5.13895">
        <ele>418</ele>
        <time>2021-03-10T13:08:02+01:00</time>
      </trkpt>
      <trkpt lat="43.969" lon="5.13904">
        <ele>412.3</ele>
      </trkpt>
      <trkpt lat="43.96863" lon="5.13915">
        <ele>413.2</ele>
      </trkpt>
      <trkpt lat="43.9681" lon="5.13917">
        <ele>410</ele>
      </trkpt>
      <trkpt lat="43.96783" lon="5.13917">
        <ele>407.7</ele>
      </trkpt>
      <trkpt lat="43.96742" lon="5.13913">
        <ele>403.1</ele>
      </trkpt>
      <trkpt lat="43.96706" lon="5.13926">
        <ele>404.3</ele>
      </trkpt>
      <trkpt lat="43.96678" lon="5.13934">
        <ele>404.8</ele>
      </trkpt>
      <trkpt lat="43.96581" lon="5.13956">
        <ele>391.2</ele>
      </trkpt>
      <trkpt lat="43.96553" lon="5.1403">
        <ele>403.5</ele>
      </trkpt>
      <trkpt lat="43.9651" lon="5.14117">
        <ele>405.9</ele>
      </trkpt>
      <trkpt lat="43.96478" lon="5.14133">
        <ele>407.3</ele>
      </trkpt>
      <trkpt lat="43.96451" lon="5.14149">
        <ele>409.6</ele>
      </trkpt>
      <trkpt lat="43.96475" lon="5.14102">
        <ele>404.1</ele>
      </trkpt>
      <trkpt lat="43.96506" lon="5.14011">
        <ele>393.5</ele>
      </trkpt>
      <trkpt lat="43.96527" lon="5.13949">
        <ele>389.1</ele>
      </trkpt>
      <trkpt lat="43.96551" lon="5.13907">
        <ele>382.2</ele>
      </trkpt>
      <trkpt lat="43.96578" lon="5.1385">
        <ele>372.7</ele>
      </trkpt>
      <trkpt lat="43.9665" lon="5.13788">
        <ele>369.3</ele>
      </trkpt>
      <trkpt lat="43.96752" lon="5.13725">
        <ele>359.3</ele>
      </trkpt>
      <trkpt lat="43.9689" lon="5.13653">
        <ele>347.3</ele>
      </trkpt>
      <trkpt lat="43.96967" lon="5.13591">
        <ele>343.1</ele>
      </trkpt>
      <trkpt lat="43.97034" lon="5.13515">
        <ele>340.9</ele>
      </trkpt>
      <trkpt lat="43.97063" lon="5.13471">
        <ele>337.6</ele>
      </trkpt>
      <trkpt lat="43.97078" lon="5.13399">
        <ele>331.4</ele>
      </trkpt>
      <trkpt lat="43.97109" lon="5.13378">
        <ele>330.7</ele>
      </trkpt>
      <trkpt lat="43.97137" lon="5.13334">
        <ele>325.8</ele>
      </trkpt>
      <trkpt lat="43.97162" lon="5.13312">
        <ele>322.1</ele>
      </trkpt>
      <trkpt lat="43.97208" lon="5.13313">
        <ele>319.9</ele>
      </trkpt>
      <trkpt lat="43.97235" lon="5.13315">
        <ele>319.1</ele>
      </trkpt>
      <trkpt lat="43.97256" lon="5.13292">
        <ele>316.7</ele>
      </trkpt>
      <trkpt lat="43.97278" lon="5.13268">
        <ele>313.9</ele>
      </trkpt>
      <trkpt lat="43.97284" lon="5.13238">
        <ele>313.5</ele>
      </trkpt>
      <trkpt lat="43.97272" lon="5.13214">
        <ele>316.6</ele>
      </trkpt>
      <trkpt lat="43.97238" lon="5.13193">
        <ele>321.2</ele>
      </trkpt>
      <trkpt lat="43.97179" lon="5.13154">
        <ele>331.6</ele>
      </trkpt>
      <trkpt lat="43.97126" lon="5.13113">
        <ele>346.2</ele>
      </trkpt>
      <trkpt lat="43.97062" lon="5.13112">
        <ele>356.7</ele>
      </trkpt>
      <trkpt lat="43.97013" lon="5.13115">
        <ele>365.9</ele>
      </trkpt>
      <trkpt lat="43.96976" lon="5.13131">
        <ele>372.7</ele>
      </trkpt>
      <trkpt lat="43.96953" lon="5.13131">
        <ele>377.6</ele>
      </trkpt>
      <trkpt lat="43.96927" lon="5.13131">
        <ele>382.8</ele>
      </trkpt>
      <trkpt lat="43.96935" lon="5.1311">
        <ele>381.3</ele>
      </trkpt>
      <trkpt lat="43.96962" lon="5.13094">
        <ele>376.1</ele>
      </trkpt>
      <trkpt lat="43.96989" lon="5.13074">
        <ele>371.8</ele>
      </trkpt>
      <trkpt lat="43.97004" lon="5.13048">
        <ele>371.3</ele>
      </trkpt>
      <trkpt lat="43.96962" lon="5.12999">
        <ele>381.9</ele>
      </trkpt>
      <trkpt lat="43.96942" lon="5.12996">
        <ele>385</ele>
      </trkpt>
      <trkpt lat="43.96908" lon="5.12999">
        <ele>389.8</ele>
      </trkpt>
      <trkpt lat="43.96886" lon="5.1299">
        <ele>391.8</ele>
      </trkpt>
      <trkpt lat="43.9686" lon="5.1299">
        <ele>394.2</ele>
      </trkpt>
      <trkpt lat="43.9684" lon="5.12998">
        <ele>396.3</ele>
      </trkpt>
      <trkpt lat="43.96828" lon="5.12989">
        <ele>396.8</ele>
      </trkpt>
      <trkpt lat="43.9682" lon="5.1297">
        <ele>396</ele>
      </trkpt>
      <trkpt lat="43.96808" lon="5.12951">
        <ele>395.1</ele>
      </trkpt>
      <trkpt lat="43.96794" lon="5.12949">
        <ele>394.8</ele>
      </trkpt>
      <trkpt lat="43.96785" lon="5.12951">
        <ele>394.9</ele>
      </trkpt>
    </trkseg>
  </trk>
</gpx>